sensor_id;sensor_type;location;lat;lon;timestamp;P1;durP1;ratioP1;P2;durP2;ratioP2
61473;SDS011;53694;49.784;30.150;2023-04-24T00:00:51;20.54;;;12.11;;
61473;SDS011;53694;49.784;30.150;2023-04-24T00:01:53;16.61;;;9.71;;
61473;SDS011;53694;49.784;30.150;2023-04-24T00:02:55;18.76;;;10.37;;
61473;SDS011;53694;49.784;30.150;2023-04-24T00:03:56;20.38;;;9.50;;
61473;SDS011;53694;49.784;30.150;2023-04-24T00:04:58;17.87;;;8.64;;
61473;SDS011;53694;49.784;30.150;2023-04-24T00:06:00;14.59;;;7.53;;
61473;SDS011;53694;49.784;30.150;2023-04-24T00:07:02;13.48;;;7.32;;
61473;SDS011;53694;49.784;30.150;2023-04-24T00:08:03;10.86;;;6.76;;
61473;SDS011;53694;49.784;30.150;2023-04-24T00:09:05;12.34;;;6.98;;
61473;SDS011;53694;49.784;30.150;2023-04-24T00:10:07;12.85;;;8.27;;
61473;SDS011;53694;49.784;30.150;2023-04-24T00:11:10;12.83;;;7.73;;
61473;SDS011;53694;49.784;30.150;2023-04-24T00:12:11;14.63;;;8.87;;
61473;SDS011;53694;49.784;30.150;2023-04-24T00:13:13;16.99;;;9.96;;
61473;SDS011;53694;49.784;30.150;2023-04-24T00:14:14;23.19;;;13.11;;
61473;SDS011;53694;49.784;30.150;2023-04-24T00:15:16;23.79;;;13.51;;
61473;SDS011;53694;49.784;30.150;2023-04-24T00:16:18;24.30;;;14.08;;
61473;SDS011;53694;49.784;30.150;2023-04-24T00:17:20;27.92;;;14.61;;
61473;SDS011;53694;49.784;30.150;2023-04-24T00:18:22;26.25;;;14.45;;
61473;SDS011;53694;49.784;30.150;2023-04-24T00:19:23;32.96;;;14.12;;
61473;SDS011;53694;49.784;30.150;2023-04-24T00:20:25;28.30;;;14.01;;
61473;SDS011;53694;49.784;30.150;2023-04-24T00:21:27;27.39;;;14.45;;
61473;SDS011;53694;49.784;30.150;2023-04-24T00:22:28;27.54;;;15.11;;
61473;SDS011;53694;49.784;30.150;2023-04-24T00:23:30;27.97;;;15.01;;
61473;SDS011;53694;49.784;30.150;2023-04-24T00:24:31;25.51;;;14.42;;
61473;SDS011;53694;49.784;30.150;2023-04-24T00:25:33;27.79;;;13.71;;
61473;SDS011;53694;49.784;30.150;2023-04-24T00:26:35;27.46;;;14.44;;
61473;SDS011;53694;49.784;30.150;2023-04-24T00:27:36;24.23;;;13.91;;
61473;SDS011;53694;49.784;30.150;2023-04-24T00:28:38;27.59;;;14.43;;
61473;SDS011;53694;49.784;30.150;2023-04-24T00:29:40;23.57;;;13.61;;
61473;SDS011;53694;49.784;30.150;2023-04-24T00:30:41;28.27;;;14.12;;
61473;SDS011;53694;49.784;30.150;2023-04-24T00:31:43;28.39;;;15.39;;
61473;SDS011;53694;49.784;30.150;2023-04-24T00:32:44;26.53;;;14.70;;
61473;SDS011;53694;49.784;30.150;2023-04-24T00:33:46;26.44;;;14.75;;
61473;SDS011;53694;49.784;30.150;2023-04-24T00:34:47;24.90;;;13.10;;
61473;SDS011;53694;49.784;30.150;2023-04-24T00:35:49;26.13;;;13.51;;
61473;SDS011;53694;49.784;30.150;2023-04-24T00:36:51;28.19;;;14.26;;
61473;SDS011;53694;49.784;30.150;2023-04-24T00:37:52;20.40;;;12.35;;
61473;SDS011;53694;49.784;30.150;2023-04-24T00:38:54;19.40;;;10.85;;
61473;SDS011;53694;49.784;30.150;2023-04-24T00:39:56;24.73;;;12.82;;
61473;SDS011;53694;49.784;30.150;2023-04-24T00:40:57;24.19;;;12.99;;
61473;SDS011;53694;49.784;30.150;2023-04-24T00:41:59;22.39;;;11.77;;
61473;SDS011;53694;49.784;30.150;2023-04-24T00:43:01;23.33;;;12.59;;
61473;SDS011;53694;49.784;30.150;2023-04-24T00:44:03;21.75;;;12.13;;
61473;SDS011;53694;49.784;30.150;2023-04-24T00:45:05;22.49;;;11.52;;
61473;SDS011;53694;49.784;30.150;2023-04-24T00:46:08;23.02;;;12.10;;
61473;SDS011;53694;49.784;30.150;2023-04-24T00:47:10;23.96;;;12.01;;
61473;SDS011;53694;49.784;30.150;2023-04-24T00:48:14;21.95;;;11.65;;
61473;SDS011;53694;49.784;30.150;2023-04-24T00:49:16;23.23;;;10.95;;
61473;SDS011;53694;49.784;30.150;2023-04-24T00:50:18;18.36;;;10.41;;
61473;SDS011;53694;49.784;30.150;2023-04-24T00:51:22;19.96;;;10.66;;
61473;SDS011;53694;49.784;30.150;2023-04-24T00:52:23;22.74;;;11.59;;
61473;SDS011;53694;49.784;30.150;2023-04-24T00:53:25;21.24;;;10.84;;
61473;SDS011;53694;49.784;30.150;2023-04-24T00:54:26;18.29;;;10.95;;
61473;SDS011;53694;49.784;30.150;2023-04-24T00:55:28;19.36;;;10.39;;
61473;SDS011;53694;49.784;30.150;2023-04-24T00:56:30;19.87;;;11.04;;
61473;SDS011;53694;49.784;30.150;2023-04-24T00:57:32;19.10;;;10.06;;
61473;SDS011;53694;49.784;30.150;2023-04-24T00:58:34;20.33;;;10.19;;
61473;SDS011;53694;49.784;30.150;2023-04-24T00:59:35;22.94;;;10.29;;
61473;SDS011;53694;49.784;30.150;2023-04-24T01:00:37;20.99;;;10.60;;
61473;SDS011;53694;49.784;30.150;2023-04-24T01:01:39;18.85;;;10.13;;
61473;SDS011;53694;49.784;30.150;2023-04-24T01:02:42;16.99;;;10.12;;
61473;SDS011;53694;49.784;30.150;2023-04-24T01:03:45;17.69;;;10.06;;
61473;SDS011;53694;49.784;30.150;2023-04-24T01:04:46;20.53;;;10.27;;
61473;SDS011;53694;49.784;30.150;2023-04-24T01:05:49;21.49;;;10.89;;
61473;SDS011;53694;49.784;30.150;2023-04-24T01:06:51;17.85;;;10.54;;
61473;SDS011;53694;49.784;30.150;2023-04-24T01:07:53;19.45;;;11.31;;
61473;SDS011;53694;49.784;30.150;2023-04-24T01:08:54;18.25;;;10.44;;
61473;SDS011;53694;49.784;30.150;2023-04-24T01:09:56;19.07;;;10.43;;
61473;SDS011;53694;49.784;30.150;2023-04-24T01:10:58;18.77;;;9.89;;
61473;SDS011;53694;49.784;30.150;2023-04-24T01:12:01;18.48;;;9.54;;
61473;SDS011;53694;49.784;30.150;2023-04-24T01:13:03;17.57;;;9.81;;
61473;SDS011;53694;49.784;30.150;2023-04-24T01:14:05;18.24;;;9.81;;
61473;SDS011;53694;49.784;30.150;2023-04-24T01:15:08;20.18;;;10.11;;
61473;SDS011;53694;49.784;30.150;2023-04-24T01:16:12;20.55;;;9.95;;
61473;SDS011;53694;49.784;30.150;2023-04-24T01:17:14;19.17;;;10.31;;
61473;SDS011;53694;49.784;30.150;2023-04-24T01:18:16;17.34;;;10.19;;
61473;SDS011;53694;49.784;30.150;2023-04-24T01:19:17;16.42;;;9.85;;
61473;SDS011;53694;49.784;30.150;2023-04-24T01:20:20;17.43;;;9.94;;
61473;SDS011;53694;49.784;30.150;2023-04-24T01:21:22;17.19;;;10.21;;
61473;SDS011;53694;49.784;30.150;2023-04-24T01:22:26;17.61;;;10.54;;
61473;SDS011;53694;49.784;30.150;2023-04-24T01:23:28;17.55;;;10.64;;
61473;SDS011;53694;49.784;30.150;2023-04-24T01:24:30;21.20;;;10.33;;
61473;SDS011;53694;49.784;30.150;2023-04-24T01:25:31;17.79;;;9.78;;
61473;SDS011;53694;49.784;30.150;2023-04-24T01:26:33;19.41;;;10.10;;
61473;SDS011;53694;49.784;30.150;2023-04-24T01:27:35;17.86;;;10.07;;
61473;SDS011;53694;49.784;30.150;2023-04-24T01:28:37;17.82;;;9.92;;
61473;SDS011;53694;49.784;30.150;2023-04-24T01:29:39;21.02;;;10.31;;
61473;SDS011;53694;49.784;30.150;2023-04-24T01:30:41;18.78;;;10.12;;
61473;SDS011;53694;49.784;30.150;2023-04-24T01:31:42;17.06;;;9.98;;
61473;SDS011;53694;49.784;30.150;2023-04-24T01:32:44;20.65;;;9.99;;
61473;SDS011;53694;49.784;30.150;2023-04-24T01:33:47;19.36;;;10.16;;
61473;SDS011;53694;49.784;30.150;2023-04-24T01:34:49;17.28;;;8.93;;
61473;SDS011;53694;49.784;30.150;2023-04-24T01:35:51;18.86;;;8.77;;
61473;SDS011;53694;49.784;30.150;2023-04-24T01:36:53;16.26;;;8.47;;
61473;SDS011;53694;49.784;30.150;2023-04-24T01:37:55;17.28;;;8.04;;
61473;SDS011;53694;49.784;30.150;2023-04-24T01:38:56;17.91;;;9.01;;
61473;SDS011;53694;49.784;30.150;2023-04-24T01:39:58;16.74;;;8.65;;
61473;SDS011;53694;49.784;30.150;2023-04-24T01:41:00;15.94;;;8.75;;
61473;SDS011;53694;49.784;30.150;2023-04-24T01:42:02;18.36;;;8.83;;
61473;SDS011;53694;49.784;30.150;2023-04-24T01:43:04;14.83;;;9.30;;
61473;SDS011;53694;49.784;30.150;2023-04-24T01:44:06;18.37;;;9.27;;
61473;SDS011;53694;49.784;30.150;2023-04-24T01:45:08;17.54;;;9.70;;
61473;SDS011;53694;49.784;30.150;2023-04-24T01:46:11;17.07;;;9.53;;
61473;SDS011;53694;49.784;30.150;2023-04-24T01:47:14;18.59;;;10.10;;
61473;SDS011;53694;49.784;30.150;2023-04-24T01:48:16;14.63;;;9.13;;
61473;SDS011;53694;49.784;30.150;2023-04-24T01:49:18;17.89;;;10.12;;
61473;SDS011;53694;49.784;30.150;2023-04-24T01:50:19;15.97;;;9.36;;
61473;SDS011;53694;49.784;30.150;2023-04-24T01:51:21;19.22;;;9.76;;
61473;SDS011;53694;49.784;30.150;2023-04-24T01:52:22;15.64;;;8.81;;
61473;SDS011;53694;49.784;30.150;2023-04-24T01:53:24;18.32;;;9.24;;
61473;SDS011;53694;49.784;30.150;2023-04-24T01:54:26;15.69;;;8.79;;
61473;SDS011;53694;49.784;30.150;2023-04-24T01:55:29;15.01;;;9.40;;
61473;SDS011;53694;49.784;30.150;2023-04-24T01:56:31;9.31;;;5.19;;
61473;SDS011;53694;49.784;30.150;2023-04-24T01:57:35;9.01;;;4.78;;
61473;SDS011;53694;49.784;30.150;2023-04-24T01:58:36;6.87;;;4.03;;
61473;SDS011;53694;49.784;30.150;2023-04-24T01:59:38;8.80;;;4.27;;
61473;SDS011;53694;49.784;30.150;2023-04-24T02:00:40;8.23;;;4.19;;
61473;SDS011;53694;49.784;30.150;2023-04-24T02:01:41;10.41;;;4.64;;
61473;SDS011;53694;49.784;30.150;2023-04-24T02:02:43;7.80;;;4.29;;
61473;SDS011;53694;49.784;30.150;2023-04-24T02:03:46;8.59;;;4.55;;
61473;SDS011;53694;49.784;30.150;2023-04-24T02:04:48;10.87;;;4.47;;
61473;SDS011;53694;49.784;30.150;2023-04-24T02:05:49;7.46;;;4.11;;
61473;SDS011;53694;49.784;30.150;2023-04-24T02:06:51;8.71;;;5.12;;
61473;SDS011;53694;49.784;30.150;2023-04-24T02:07:53;9.86;;;4.96;;
61473;SDS011;53694;49.784;30.150;2023-04-24T02:08:54;11.96;;;4.99;;
61473;SDS011;53694;49.784;30.150;2023-04-24T02:09:56;8.06;;;4.60;;
61473;SDS011;53694;49.784;30.150;2023-04-24T02:10:58;8.77;;;4.14;;
61473;SDS011;53694;49.784;30.150;2023-04-24T02:11:59;9.54;;;5.14;;
61473;SDS011;53694;49.784;30.150;2023-04-24T02:13:01;7.74;;;4.97;;
61473;SDS011;53694;49.784;30.150;2023-04-24T02:14:02;7.76;;;4.31;;
61473;SDS011;53694;49.784;30.150;2023-04-24T02:15:04;11.12;;;7.15;;
61473;SDS011;53694;49.784;30.150;2023-04-24T02:16:06;14.03;;;8.62;;
61473;SDS011;53694;49.784;30.150;2023-04-24T02:17:08;13.25;;;8.17;;
61473;SDS011;53694;49.784;30.150;2023-04-24T02:18:10;17.03;;;9.95;;
61473;SDS011;53694;49.784;30.150;2023-04-24T02:19:11;14.09;;;7.70;;
61473;SDS011;53694;49.784;30.150;2023-04-24T02:20:13;11.14;;;6.49;;
61473;SDS011;53694;49.784;30.150;2023-04-24T02:21:15;14.32;;;8.16;;
61473;SDS011;53694;49.784;30.150;2023-04-24T02:22:16;13.29;;;7.61;;
61473;SDS011;53694;49.784;30.150;2023-04-24T02:23:18;16.40;;;9.02;;
61473;SDS011;53694;49.784;30.150;2023-04-24T02:24:19;23.84;;;11.53;;
61473;SDS011;53694;49.784;30.150;2023-04-24T02:25:21;18.82;;;11.20;;
61473;SDS011;53694;49.784;30.150;2023-04-24T02:26:23;19.87;;;12.75;;
61473;SDS011;53694;49.784;30.150;2023-04-24T02:27:25;27.39;;;13.99;;
61473;SDS011;53694;49.784;30.150;2023-04-24T02:28:26;22.27;;;13.37;;
61473;SDS011;53694;49.784;30.150;2023-04-24T02:29:28;22.09;;;12.39;;
61473;SDS011;53694;49.784;30.150;2023-04-24T02:30:30;20.26;;;11.49;;
61473;SDS011;53694;49.784;30.150;2023-04-24T02:31:32;21.09;;;11.41;;
61473;SDS011;53694;49.784;30.150;2023-04-24T02:32:33;20.21;;;11.42;;
61473;SDS011;53694;49.784;30.150;2023-04-24T02:33:35;20.23;;;10.79;;
61473;SDS011;53694;49.784;30.150;2023-04-24T02:34:36;20.94;;;11.50;;
61473;SDS011;53694;49.784;30.150;2023-04-24T02:35:38;20.91;;;11.21;;
61473;SDS011;53694;49.784;30.150;2023-04-24T02:36:40;17.93;;;10.80;;
61473;SDS011;53694;49.784;30.150;2023-04-24T02:37:42;21.13;;;10.55;;
61473;SDS011;53694;49.784;30.150;2023-04-24T02:38:43;17.82;;;11.21;;
61473;SDS011;53694;49.784;30.150;2023-04-24T02:39:45;18.86;;;11.65;;
61473;SDS011;53694;49.784;30.150;2023-04-24T02:40:47;20.02;;;11.22;;
61473;SDS011;53694;49.784;30.150;2023-04-24T02:41:48;17.71;;;10.89;;
61473;SDS011;53694;49.784;30.150;2023-04-24T02:42:50;17.64;;;10.74;;
61473;SDS011;53694;49.784;30.150;2023-04-24T02:43:51;15.41;;;8.97;;
61473;SDS011;53694;49.784;30.150;2023-04-24T02:44:53;18.69;;;10.50;;
61473;SDS011;53694;49.784;30.150;2023-04-24T02:45:54;19.60;;;11.51;;
61473;SDS011;53694;49.784;30.150;2023-04-24T02:46:56;18.49;;;9.97;;
61473;SDS011;53694;49.784;30.150;2023-04-24T02:47:58;18.11;;;9.62;;
61473;SDS011;53694;49.784;30.150;2023-04-24T02:48:59;16.91;;;8.79;;
61473;SDS011;53694;49.784;30.150;2023-04-24T02:50:01;15.51;;;7.62;;
61473;SDS011;53694;49.784;30.150;2023-04-24T02:51:03;21.68;;;12.76;;
61473;SDS011;53694;49.784;30.150;2023-04-24T02:52:05;16.94;;;8.76;;
61473;SDS011;53694;49.784;30.150;2023-04-24T02:53:07;21.06;;;13.19;;
61473;SDS011;53694;49.784;30.150;2023-04-24T02:54:08;24.84;;;15.26;;
61473;SDS011;53694;49.784;30.150;2023-04-24T02:55:10;26.55;;;16.96;;
61473;SDS011;53694;49.784;30.150;2023-04-24T02:56:12;27.13;;;18.31;;
61473;SDS011;53694;49.784;30.150;2023-04-24T02:57:13;46.59;;;27.66;;
61473;SDS011;53694;49.784;30.150;2023-04-24T02:58:15;27.80;;;17.09;;
61473;SDS011;53694;49.784;30.150;2023-04-24T02:59:16;18.86;;;12.44;;
61473;SDS011;53694;49.784;30.150;2023-04-24T03:00:18;29.16;;;16.79;;
61473;SDS011;53694;49.784;30.150;2023-04-24T03:01:21;25.10;;;16.32;;
61473;SDS011;53694;49.784;30.150;2023-04-24T03:02:23;27.37;;;17.67;;
61473;SDS011;53694;49.784;30.150;2023-04-24T03:03:24;29.14;;;17.67;;
61473;SDS011;53694;49.784;30.150;2023-04-24T03:04:26;28.54;;;17.56;;
61473;SDS011;53694;49.784;30.150;2023-04-24T03:05:27;30.88;;;17.24;;
61473;SDS011;53694;49.784;30.150;2023-04-24T03:06:29;28.45;;;16.60;;
61473;SDS011;53694;49.784;30.150;2023-04-24T03:07:31;27.50;;;15.91;;
61473;SDS011;53694;49.784;30.150;2023-04-24T03:08:32;28.58;;;16.49;;
61473;SDS011;53694;49.784;30.150;2023-04-24T03:09:34;24.72;;;15.53;;
61473;SDS011;53694;49.784;30.150;2023-04-24T03:10:36;26.69;;;15.21;;
61473;SDS011;53694;49.784;30.150;2023-04-24T03:11:38;27.30;;;15.76;;
61473;SDS011;53694;49.784;30.150;2023-04-24T03:12:39;17.65;;;11.32;;
61473;SDS011;53694;49.784;30.150;2023-04-24T03:13:41;15.95;;;8.54;;
61473;SDS011;53694;49.784;30.150;2023-04-24T03:14:42;16.18;;;7.77;;
61473;SDS011;53694;49.784;30.150;2023-04-24T03:15:44;14.40;;;8.37;;
61473;SDS011;53694;49.784;30.150;2023-04-24T03:16:46;17.54;;;8.20;;
61473;SDS011;53694;49.784;30.150;2023-04-24T03:17:48;16.10;;;8.76;;
61473;SDS011;53694;49.784;30.150;2023-04-24T03:18:49;15.07;;;8.61;;
61473;SDS011;53694;49.784;30.150;2023-04-24T03:19:51;11.96;;;6.99;;
61473;SDS011;53694;49.784;30.150;2023-04-24T03:20:52;12.74;;;7.12;;
61473;SDS011;53694;49.784;30.150;2023-04-24T03:21:54;12.95;;;8.02;;
61473;SDS011;53694;49.784;30.150;2023-04-24T03:22:56;15.31;;;7.79;;
61473;SDS011;53694;49.784;30.150;2023-04-24T03:23:57;20.90;;;8.60;;
61473;SDS011;53694;49.784;30.150;2023-04-24T03:24:59;17.27;;;8.76;;
61473;SDS011;53694;49.784;30.150;2023-04-24T03:26:01;16.18;;;8.38;;
61473;SDS011;53694;49.784;30.150;2023-04-24T03:27:03;16.99;;;9.17;;
61473;SDS011;53694;49.784;30.150;2023-04-24T03:28:04;15.97;;;8.71;;
61473;SDS011;53694;49.784;30.150;2023-04-24T03:29:06;13.75;;;7.11;;
61473;SDS011;53694;49.784;30.150;2023-04-24T03:30:08;14.59;;;7.01;;
61473;SDS011;53694;49.784;30.150;2023-04-24T03:31:10;10.45;;;6.21;;
61473;SDS011;53694;49.784;30.150;2023-04-24T03:32:12;12.11;;;6.15;;
61473;SDS011;53694;49.784;30.150;2023-04-24T03:33:13;14.03;;;7.79;;
61473;SDS011;53694;49.784;30.150;2023-04-24T03:34:15;16.57;;;8.33;;
61473;SDS011;53694;49.784;30.150;2023-04-24T03:35:17;16.21;;;8.12;;
61473;SDS011;53694;49.784;30.150;2023-04-24T03:36:18;11.87;;;7.09;;
61473;SDS011;53694;49.784;30.150;2023-04-24T03:37:20;15.67;;;6.97;;
61473;SDS011;53694;49.784;30.150;2023-04-24T03:38:21;13.19;;;6.92;;
61473;SDS011;53694;49.784;30.150;2023-04-24T03:39:23;12.24;;;7.03;;
61473;SDS011;53694;49.784;30.150;2023-04-24T03:40:25;12.36;;;7.17;;
61473;SDS011;53694;49.784;30.150;2023-04-24T03:41:26;14.59;;;6.94;;
61473;SDS011;53694;49.784;30.150;2023-04-24T03:42:28;15.51;;;7.16;;
61473;SDS011;53694;49.784;30.150;2023-04-24T03:43:30;18.19;;;8.92;;
61473;SDS011;53694;49.784;30.150;2023-04-24T03:44:31;14.82;;;7.21;;
61473;SDS011;53694;49.784;30.150;2023-04-24T03:45:33;18.53;;;8.38;;
61473;SDS011;53694;49.784;30.150;2023-04-24T03:46:35;15.36;;;8.58;;
61473;SDS011;53694;49.784;30.150;2023-04-24T03:47:36;15.99;;;8.38;;
61473;SDS011;53694;49.784;30.150;2023-04-24T03:48:38;16.89;;;8.63;;
61473;SDS011;53694;49.784;30.150;2023-04-24T03:49:40;18.08;;;8.86;;
61473;SDS011;53694;49.784;30.150;2023-04-24T03:50:42;16.36;;;9.26;;
61473;SDS011;53694;49.784;30.150;2023-04-24T03:51:43;14.70;;;8.47;;
61473;SDS011;53694;49.784;30.150;2023-04-24T03:52:45;15.87;;;8.67;;
61473;SDS011;53694;49.784;30.150;2023-04-24T03:53:47;18.45;;;8.59;;
61473;SDS011;53694;49.784;30.150;2023-04-24T03:54:48;18.77;;;8.59;;
61473;SDS011;53694;49.784;30.150;2023-04-24T03:55:50;14.65;;;8.06;;
61473;SDS011;53694;49.784;30.150;2023-04-24T03:56:52;17.16;;;8.66;;
61473;SDS011;53694;49.784;30.150;2023-04-24T03:57:53;14.33;;;8.10;;
61473;SDS011;53694;49.784;30.150;2023-04-24T03:58:55;18.13;;;8.37;;
61473;SDS011;53694;49.784;30.150;2023-04-24T03:59:56;15.59;;;8.73;;
61473;SDS011;53694;49.784;30.150;2023-04-24T04:00:58;17.41;;;9.36;;
61473;SDS011;53694;49.784;30.150;2023-04-24T04:02:00;16.56;;;9.86;;
61473;SDS011;53694;49.784;30.150;2023-04-24T04:03:01;17.51;;;10.69;;
61473;SDS011;53694;49.784;30.150;2023-04-24T04:04:03;18.89;;;10.52;;
61473;SDS011;53694;49.784;30.150;2023-04-24T04:05:05;20.55;;;10.41;;
61473;SDS011;53694;49.784;30.150;2023-04-24T04:06:09;18.28;;;11.05;;
61473;SDS011;53694;49.784;30.150;2023-04-24T04:07:11;26.67;;;11.67;;
61473;SDS011;53694;49.784;30.150;2023-04-24T04:08:13;17.97;;;10.99;;
61473;SDS011;53694;49.784;30.150;2023-04-24T04:09:14;18.92;;;10.74;;
61473;SDS011;53694;49.784;30.150;2023-04-24T04:10:16;20.40;;;10.49;;
61473;SDS011;53694;49.784;30.150;2023-04-24T04:11:18;19.24;;;9.79;;
61473;SDS011;53694;49.784;30.150;2023-04-24T04:12:19;15.79;;;9.09;;
61473;SDS011;53694;49.784;30.150;2023-04-24T04:13:21;21.54;;;10.45;;
61473;SDS011;53694;49.784;30.150;2023-04-24T04:14:22;19.55;;;10.29;;
61473;SDS011;53694;49.784;30.150;2023-04-24T04:15:24;19.53;;;10.28;;
61473;SDS011;53694;49.784;30.150;2023-04-24T04:16:26;21.68;;;10.92;;
61473;SDS011;53694;49.784;30.150;2023-04-24T04:17:27;20.36;;;11.34;;
61473;SDS011;53694;49.784;30.150;2023-04-24T04:18:29;25.34;;;12.63;;
61473;SDS011;53694;49.784;30.150;2023-04-24T04:19:31;25.73;;;11.97;;
61473;SDS011;53694;49.784;30.150;2023-04-24T04:20:33;22.03;;;10.19;;
61473;SDS011;53694;49.784;30.150;2023-04-24T04:21:34;16.18;;;10.22;;
61473;SDS011;53694;49.784;30.150;2023-04-24T04:22:36;21.19;;;10.65;;
61473;SDS011;53694;49.784;30.150;2023-04-24T04:23:38;20.23;;;12.15;;
61473;SDS011;53694;49.784;30.150;2023-04-24T04:24:39;22.39;;;13.49;;
61473;SDS011;53694;49.784;30.150;2023-04-24T04:25:41;26.41;;;15.21;;
61473;SDS011;53694;49.784;30.150;2023-04-24T04:26:45;20.24;;;11.00;;
61473;SDS011;53694;49.784;30.150;2023-04-24T04:27:46;19.56;;;10.69;;
61473;SDS011;53694;49.784;30.150;2023-04-24T04:28:48;15.49;;;9.21;;
61473;SDS011;53694;49.784;30.150;2023-04-24T04:29:50;17.26;;;9.51;;
61473;SDS011;53694;49.784;30.150;2023-04-24T04:30:52;18.81;;;10.13;;
61473;SDS011;53694;49.784;30.150;2023-04-24T04:31:53;17.69;;;9.41;;
61473;SDS011;53694;49.784;30.150;2023-04-24T04:32:55;15.03;;;9.54;;
61473;SDS011;53694;49.784;30.150;2023-04-24T04:33:57;16.08;;;8.37;;
61473;SDS011;53694;49.784;30.150;2023-04-24T04:34:59;17.47;;;8.33;;
61473;SDS011;53694;49.784;30.150;2023-04-24T04:36:01;19.32;;;8.50;;
61473;SDS011;53694;49.784;30.150;2023-04-24T04:37:03;21.05;;;9.17;;
61473;SDS011;53694;49.784;30.150;2023-04-24T04:38:04;16.66;;;9.49;;
61473;SDS011;53694;49.784;30.150;2023-04-24T04:39:06;15.19;;;8.88;;
61473;SDS011;53694;49.784;30.150;2023-04-24T04:40:08;14.05;;;7.83;;
61473;SDS011;53694;49.784;30.150;2023-04-24T04:41:10;16.33;;;8.72;;
61473;SDS011;53694;49.784;30.150;2023-04-24T04:42:11;16.82;;;9.20;;
61473;SDS011;53694;49.784;30.150;2023-04-24T04:43:13;15.17;;;8.43;;
61473;SDS011;53694;49.784;30.150;2023-04-24T04:44:15;17.49;;;8.37;;
61473;SDS011;53694;49.784;30.150;2023-04-24T04:45:17;17.59;;;9.13;;
61473;SDS011;53694;49.784;30.150;2023-04-24T04:46:18;20.48;;;9.50;;
61473;SDS011;53694;49.784;30.150;2023-04-24T04:47:20;17.60;;;9.09;;
61473;SDS011;53694;49.784;30.150;2023-04-24T04:48:22;19.64;;;10.03;;
61473;SDS011;53694;49.784;30.150;2023-04-24T04:49:24;23.20;;;11.85;;
61473;SDS011;53694;49.784;30.150;2023-04-24T04:50:26;13.47;;;7.20;;
61473;SDS011;53694;49.784;30.150;2023-04-24T04:51:28;16.88;;;7.20;;
61473;SDS011;53694;49.784;30.150;2023-04-24T04:52:30;16.37;;;7.56;;
61473;SDS011;53694;49.784;30.150;2023-04-24T04:53:32;13.54;;;7.16;;
61473;SDS011;53694;49.784;30.150;2023-04-24T04:54:34;12.26;;;6.42;;
61473;SDS011;53694;49.784;30.150;2023-04-24T04:55:35;9.44;;;5.89;;
61473;SDS011;53694;49.784;30.150;2023-04-24T04:56:38;10.65;;;6.35;;
61473;SDS011;53694;49.784;30.150;2023-04-24T04:57:40;12.64;;;7.15;;
61473;SDS011;53694;49.784;30.150;2023-04-24T04:58:41;11.73;;;6.42;;
61473;SDS011;53694;49.784;30.150;2023-04-24T04:59:43;13.02;;;6.14;;
61473;SDS011;53694;49.784;30.150;2023-04-24T05:00:45;14.49;;;6.44;;
61473;SDS011;53694;49.784;30.150;2023-04-24T05:01:46;12.51;;;6.22;;
61473;SDS011;53694;49.784;30.150;2023-04-24T05:02:48;12.00;;;6.36;;
61473;SDS011;53694;49.784;30.150;2023-04-24T05:03:49;8.40;;;5.09;;
61473;SDS011;53694;49.784;30.150;2023-04-24T05:04:51;8.99;;;5.64;;
61473;SDS011;53694;49.784;30.150;2023-04-24T05:05:53;11.78;;;5.77;;
61473;SDS011;53694;49.784;30.150;2023-04-24T05:06:54;9.54;;;5.08;;
61473;SDS011;53694;49.784;30.150;2023-04-24T05:07:56;12.06;;;4.91;;
61473;SDS011;53694;49.784;30.150;2023-04-24T05:08:57;11.44;;;5.32;;
61473;SDS011;53694;49.784;30.150;2023-04-24T05:09:59;11.59;;;5.45;;
61473;SDS011;53694;49.784;30.150;2023-04-24T05:11:01;10.56;;;5.01;;
61473;SDS011;53694;49.784;30.150;2023-04-24T05:12:03;9.48;;;5.37;;
61473;SDS011;53694;49.784;30.150;2023-04-24T05:13:05;22.93;;;13.01;;
61473;SDS011;53694;49.784;30.150;2023-04-24T05:14:06;16.03;;;8.63;;
61473;SDS011;53694;49.784;30.150;2023-04-24T05:15:08;12.44;;;7.12;;
61473;SDS011;53694;49.784;30.150;2023-04-24T05:16:11;12.17;;;7.14;;
61473;SDS011;53694;49.784;30.150;2023-04-24T05:17:13;9.27;;;5.35;;
61473;SDS011;53694;49.784;30.150;2023-04-24T05:18:15;10.75;;;5.33;;
61473;SDS011;53694;49.784;30.150;2023-04-24T05:19:16;7.49;;;4.56;;
61473;SDS011;53694;49.784;30.150;2023-04-24T05:20:18;11.06;;;5.29;;
61473;SDS011;53694;49.784;30.150;2023-04-24T05:21:20;10.25;;;5.37;;
61473;SDS011;53694;49.784;30.150;2023-04-24T05:22:21;11.79;;;4.99;;
61473;SDS011;53694;49.784;30.150;2023-04-24T05:23:23;10.27;;;5.15;;
61473;SDS011;53694;49.784;30.150;2023-04-24T05:24:25;10.78;;;4.95;;
61473;SDS011;53694;49.784;30.150;2023-04-24T05:25:26;8.64;;;5.16;;
61473;SDS011;53694;49.784;30.150;2023-04-24T05:26:28;9.46;;;5.18;;
61473;SDS011;53694;49.784;30.150;2023-04-24T05:27:30;10.92;;;4.87;;
61473;SDS011;53694;49.784;30.150;2023-04-24T05:28:31;9.46;;;5.09;;
61473;SDS011;53694;49.784;30.150;2023-04-24T05:29:33;9.24;;;4.93;;
61473;SDS011;53694;49.784;30.150;2023-04-24T05:30:35;10.19;;;5.46;;
61473;SDS011;53694;49.784;30.150;2023-04-24T05:31:36;9.31;;;4.94;;
61473;SDS011;53694;49.784;30.150;2023-04-24T05:32:38;9.05;;;5.29;;
61473;SDS011;53694;49.784;30.150;2023-04-24T05:33:40;9.46;;;5.47;;
61473;SDS011;53694;49.784;30.150;2023-04-24T05:34:42;10.15;;;6.20;;
61473;SDS011;53694;49.784;30.150;2023-04-24T05:35:44;9.39;;;5.47;;
61473;SDS011;53694;49.784;30.150;2023-04-24T05:36:46;12.07;;;5.99;;
61473;SDS011;53694;49.784;30.150;2023-04-24T05:37:47;9.34;;;5.74;;
61473;SDS011;53694;49.784;30.150;2023-04-24T05:38:49;14.43;;;6.82;;
61473;SDS011;53694;49.784;30.150;2023-04-24T05:39:51;10.89;;;6.06;;
61473;SDS011;53694;49.784;30.150;2023-04-24T05:40:52;11.22;;;5.52;;
61473;SDS011;53694;49.784;30.150;2023-04-24T05:41:54;9.77;;;5.57;;
61473;SDS011;53694;49.784;30.150;2023-04-24T05:42:56;8.24;;;5.00;;
61473;SDS011;53694;49.784;30.150;2023-04-24T05:43:57;8.81;;;5.23;;
61473;SDS011;53694;49.784;30.150;2023-04-24T05:44:59;9.47;;;5.16;;
61473;SDS011;53694;49.784;30.150;2023-04-24T05:46:01;8.99;;;5.17;;
61473;SDS011;53694;49.784;30.150;2023-04-24T05:47:03;28.56;;;19.99;;
61473;SDS011;53694;49.784;30.150;2023-04-24T05:48:04;12.96;;;7.48;;
61473;SDS011;53694;49.784;30.150;2023-04-24T05:49:06;35.30;;;23.89;;
61473;SDS011;53694;49.784;30.150;2023-04-24T05:50:10;9.29;;;5.01;;
61473;SDS011;53694;49.784;30.150;2023-04-24T05:51:12;7.65;;;4.42;;
61473;SDS011;53694;49.784;30.150;2023-04-24T05:52:14;7.77;;;4.56;;
61473;SDS011;53694;49.784;30.150;2023-04-24T05:53:15;7.71;;;4.78;;
61473;SDS011;53694;49.784;30.150;2023-04-24T05:54:17;11.11;;;6.21;;
61473;SDS011;53694;49.784;30.150;2023-04-24T05:55:19;9.14;;;6.15;;
61473;SDS011;53694;49.784;30.150;2023-04-24T05:56:21;9.41;;;5.49;;
61473;SDS011;53694;49.784;30.150;2023-04-24T05:57:23;10.68;;;5.41;;
61473;SDS011;53694;49.784;30.150;2023-04-24T05:58:25;9.10;;;4.78;;
61473;SDS011;53694;49.784;30.150;2023-04-24T05:59:26;8.00;;;4.39;;
61473;SDS011;53694;49.784;30.150;2023-04-24T06:00:28;10.05;;;4.86;;